Portada
METAR-TAF:

METAR-TAF

Aeropuertos :

Gachsaran, Irán

latitud: 30-26N, longitud: 050-46E, altitud: 738 m

Observación

El informe se hizo hace 48 minutos, a las 12:00 UTC
Viento calma
Temperatura 29°C
Humedad 19%
Presión 1017 hPa
Visibilidad 10 km o más
sin nubes por debajo de 1500 m y sin presencia de cumulonimbus.

METAR: OIAH 041200Z 00000KT CAVOK 29/03 Q1017

Hora: 17:18 (12:48 UTC)


TAF: falta

Observaciones y pronósticos meteorológicos de más de 4000 aeropuertos (mensajes METAR y TAF).

Los puntos amarillos y rojos representan las estaciones disponibles.

Ponga el ratón en el punto deseado para ver el nombre de la estación.

Haga clic para ver las observaciones y los pronósticos meteorológicos.

Para cambiar el mapa : haga clic en los botones verdes con una cruz de color negro para hacer un zoom, en el botón verde con un guión para alejar o en las flechas verdes para mapas adyacentes.


METAR-TAF: